createdAt,value
2023-04-14T05:13:11.841Z,6.70
2023-04-14T05:15:40.172Z,6.70
2023-04-14T05:18:08.363Z,6.70
2023-04-14T05:20:36.937Z,6.80
2023-04-14T05:23:05.287Z,6.80
2023-04-14T05:25:33.417Z,6.90
2023-04-14T05:28:01.763Z,7.00
2023-04-14T05:30:31.574Z,7.00
2023-04-14T05:32:59.756Z,7.00
2023-04-14T05:35:28.108Z,7.10
2023-04-14T05:37:56.301Z,7.10
2023-04-14T05:40:24.437Z,7.10
2023-04-14T05:42:53.041Z,7.20
2023-04-14T05:45:22.298Z,7.20
2023-04-14T05:47:51.791Z,7.20
2023-04-14T05:50:19.942Z,7.30
2023-04-14T05:52:48.034Z,7.40
2023-04-14T05:55:16.654Z,7.40
2023-04-14T05:57:44.948Z,7.50
2023-04-14T06:00:14.491Z,7.60
2023-04-14T06:02:44.359Z,7.60
2023-04-14T06:05:14.031Z,7.70
2023-04-14T06:07:42.188Z,7.70
2023-04-14T06:10:11.930Z,7.70
2023-04-14T06:12:40.375Z,7.80
2023-04-14T06:15:09.246Z,7.80
2023-04-14T06:17:37.407Z,7.80
2023-04-14T06:20:06.343Z,7.80
2023-04-14T06:22:35.783Z,7.90
2023-04-14T06:25:03.921Z,7.90
2023-04-14T06:27:32.586Z,8.00
2023-04-14T06:30:01.882Z,8.10
2023-04-14T06:32:30.046Z,8.20
2023-04-14T06:34:58.206Z,8.20
2023-04-14T06:37:26.672Z,8.30
2023-04-14T06:39:56.345Z,8.40
2023-04-14T06:42:24.567Z,8.40
2023-04-14T06:44:52.743Z,8.50
2023-04-14T06:47:21.832Z,8.60
2023-04-14T06:49:50.113Z,8.70
2023-04-14T06:52:18.347Z,8.80
2023-04-14T06:54:46.999Z,8.80
2023-04-14T06:57:16.812Z,8.90
2023-04-14T06:59:44.901Z,8.80
2023-04-14T07:02:13.680Z,9.00
2023-04-14T07:04:41.994Z,9.00
2023-04-14T07:07:10.239Z,9.00
2023-04-14T07:09:38.438Z,9.10
2023-04-14T07:12:07.285Z,9.10
2023-04-14T07:14:37.975Z,9.30
2023-04-14T07:17:06.458Z,9.30
2023-04-14T07:19:34.588Z,9.30
2023-04-14T07:22:03.339Z,9.20
2023-04-14T07:24:31.463Z,9.20
2023-04-14T07:26:59.537Z,9.20
2023-04-14T07:29:29.411Z,9.20
2023-04-14T07:31:59.697Z,9.20
2023-04-14T07:34:27.934Z,9.20
2023-04-14T07:36:56.505Z,9.30
2023-04-14T07:39:24.654Z,9.40
2023-04-14T07:41:52.738Z,9.50
2023-04-14T07:44:21.592Z,9.80
2023-04-14T07:46:49.667Z,10.10
2023-04-14T07:49:19.350Z,10.40
2023-04-14T07:51:47.635Z,10.60
2023-04-14T07:54:16.898Z,10.80
2023-04-14T07:56:45.149Z,10.90
2023-04-14T07:59:13.294Z,11.10
2023-04-14T08:01:41.763Z,11.40
2023-04-14T08:04:10.238Z,11.70
2023-04-14T08:06:39.998Z,11.70
2023-04-14T08:09:08.469Z,11.80
2023-04-14T08:11:36.624Z,12.00
2023-04-14T08:14:05.523Z,12.10
2023-04-14T08:16:36.941Z,12.10
2023-04-14T08:19:06.294Z,12.10
2023-04-14T08:21:34.452Z,12.20
2023-04-14T08:24:04.033Z,12.20
2023-04-14T08:26:32.257Z,12.20
2023-04-14T08:29:00.765Z,12.20
2023-04-14T08:31:28.923Z,12.30
2023-04-14T08:33:57.325Z,12.30
2023-04-14T08:36:27.251Z,12.30
2023-04-14T08:38:55.487Z,12.50
2023-04-14T08:41:25.527Z,12.50
2023-04-14T08:43:53.655Z,12.50
2023-04-14T08:46:22.737Z,12.30
2023-04-14T08:48:52.430Z,12.30
2023-04-14T08:51:32.051Z,12.40
2023-04-14T08:54:02.130Z,12.50
2023-04-14T08:56:34.969Z,12.70
2023-04-14T08:59:03.331Z,12.70
2023-04-14T09:01:32.633Z,12.70
2023-04-14T09:04:04.092Z,12.90
2023-04-14T09:06:33.175Z,13.20
2023-04-14T09:09:03.993Z,13.20
2023-04-14T09:11:33.767Z,13.40
2023-04-14T09:14:02.629Z,13.50
2023-04-14T09:16:32.014Z,13.60
2023-04-14T09:19:07.154Z,13.60
2023-04-14T09:21:53.958Z,13.70
2023-04-14T09:24:31.009Z,13.80
2023-04-14T09:27:03.763Z,13.90
2023-04-14T09:29:32.040Z,14.20
2023-04-14T09:32:00.560Z,14.50
2023-04-14T09:34:29.149Z,14.60
2023-04-14T09:37:05.727Z,14.60
2023-04-14T09:39:33.940Z,14.60
2023-04-14T09:42:04.930Z,14.60
2023-04-14T09:44:33.197Z,14.50
2023-04-14T09:47:02.415Z,14.70
2023-04-14T09:49:31.135Z,14.90
2023-04-14T09:52:05.772Z,14.80
2023-04-14T09:54:34.091Z,14.90
2023-04-14T09:57:04.252Z,15.10
2023-04-14T09:59:34.355Z,15.40
2023-04-14T10:02:06.414Z,15.50
2023-04-14T10:04:38.143Z,15.70
2023-04-14T10:07:09.175Z,15.90
2023-04-14T10:09:40.848Z,15.80
2023-04-14T10:12:12.320Z,15.70
2023-04-14T10:14:41.536Z,15.60
2023-04-14T10:17:10.237Z,15.80
2023-04-14T10:19:39.270Z,16.10
2023-04-14T10:22:07.800Z,16.20
2023-04-14T10:24:37.120Z,16.40
2023-04-14T10:27:06.260Z,16.20
2023-04-14T10:29:36.090Z,16.30
2023-04-14T10:32:07.192Z,16.30
2023-04-14T10:34:36.501Z,16.40
2023-04-14T10:37:15.256Z,16.40
2023-04-14T10:39:44.118Z,16.50
2023-04-14T10:42:12.363Z,16.90
2023-04-14T10:44:41.884Z,17.00
2023-04-14T10:47:10.825Z,16.90
2023-04-14T10:49:40.815Z,16.50
2023-04-14T10:52:35.039Z,16.40
2023-04-14T10:55:08.926Z,16.40
2023-04-14T10:57:43.768Z,16.40
2023-04-14T11:00:26.622Z,16.20
2023-04-14T11:02:57.403Z,16.40
2023-04-14T11:05:25.882Z,16.40
2023-04-14T11:08:01.555Z,16.40
2023-04-14T11:10:33.211Z,16.40
2023-04-14T11:13:07.142Z,16.40
2023-04-14T11:15:50.770Z,16.40
2023-04-14T11:18:32.422Z,16.00
2023-04-14T11:21:05.549Z,15.90
2023-04-14T11:23:34.312Z,15.60
2023-04-14T11:26:03.430Z,15.50
2023-04-14T11:28:32.514Z,15.40
2023-04-14T11:31:03.463Z,15.50
2023-04-14T11:33:32.464Z,15.80
2023-04-14T11:36:01.049Z,16.10
2023-04-14T11:38:29.497Z,16.40
2023-04-14T11:40:57.701Z,16.40
2023-04-14T11:43:26.197Z,16.40
2023-04-14T11:45:56.068Z,16.30
2023-04-14T11:48:25.551Z,16.20
2023-04-14T11:50:53.718Z,16.20
2023-04-14T11:53:22.043Z,16.10
2023-04-14T11:55:51.977Z,16.20
2023-04-14T11:58:23.775Z,16.50
2023-04-14T12:00:53.646Z,16.70
2023-04-14T12:03:30.073Z,16.70
2023-04-14T12:06:00.709Z,16.30
2023-04-14T12:08:31.634Z,16.10
2023-04-14T12:10:59.885Z,15.90
2023-04-14T12:13:28.218Z,15.90
2023-04-14T12:15:56.861Z,15.70
2023-04-14T12:18:25.064Z,15.70
2023-04-14T12:20:56.301Z,15.60
2023-04-14T12:23:25.695Z,15.50
2023-04-14T12:25:53.827Z,15.30
2023-04-14T12:28:27.815Z,15.30
2023-04-14T12:30:59.263Z,15.30
2023-04-14T12:33:28.721Z,15.40
2023-04-14T12:36:04.789Z,15.50
2023-04-14T12:38:33.340Z,15.40
2023-04-14T12:41:02.018Z,15.40
2023-04-14T12:43:31.680Z,15.30
2023-04-14T12:46:00.541Z,15.10
2023-04-14T12:48:43.914Z,15.10
2023-04-14T12:51:14.927Z,15.40
2023-04-14T12:53:44.225Z,15.60
2023-04-14T12:56:14.284Z,15.70
2023-04-14T12:58:44.051Z,15.90
2023-04-14T13:01:13.361Z,16.10
2023-04-14T13:03:46.908Z,16.10
2023-04-14T13:06:18.251Z,15.90
2023-04-14T13:08:47.691Z,15.90
2023-04-14T13:11:17.322Z,16.00
2023-04-14T13:13:45.595Z,16.20
2023-04-14T13:16:16.740Z,16.50
2023-04-14T13:18:46.514Z,16.80
2023-04-14T13:21:16.443Z,16.60
2023-04-14T13:23:44.599Z,16.30
2023-04-14T13:44:44.065Z,14.50
2023-04-14T13:47:12.401Z,14.50
2023-04-14T13:49:40.523Z,14.50
2023-04-14T13:52:09.752Z,14.60
2023-04-14T13:54:37.815Z,14.90
2023-04-14T13:57:06.065Z,15.10
2023-04-14T13:59:34.483Z,15.50
2023-04-14T14:02:04.292Z,15.70
2023-04-14T14:04:35.856Z,15.80
2023-04-14T14:07:04.033Z,15.90
2023-04-14T14:09:32.269Z,16.20
2023-04-14T14:12:00.303Z,16.30
2023-04-14T14:14:28.373Z,16.50
2023-04-14T14:16:56.494Z,16.80
2023-04-14T14:19:26.065Z,17.00
2023-04-14T14:21:54.238Z,17.10
2023-04-14T14:24:22.331Z,17.20
2023-04-14T14:26:50.475Z,17.10
2023-04-14T14:29:18.540Z,17.00
2023-04-14T14:31:47.078Z,17.10
2023-04-14T14:34:16.026Z,17.00
2023-04-14T14:36:46.234Z,16.90
2023-04-14T14:39:14.465Z,16.70
2023-04-14T14:41:42.592Z,16.40
2023-04-14T14:44:10.859Z,16.20
2023-04-14T14:46:39.038Z,16.20
2023-04-14T14:49:08.118Z,16.20
2023-04-14T14:51:36.237Z,16.20
2023-04-14T14:54:10.137Z,16.20
2023-04-14T14:56:38.802Z,16.30
2023-04-14T14:59:08.448Z,16.40
2023-04-14T15:01:37.179Z,16.40
2023-04-14T15:04:06.515Z,16.30
2023-04-14T15:06:35.956Z,16.50
2023-04-14T15:09:06.936Z,16.60
2023-04-14T15:11:34.973Z,16.40
2023-04-14T15:14:03.435Z,16.50
2023-04-14T15:16:31.946Z,16.40
2023-04-14T15:19:00.482Z,16.40
2023-04-14T15:21:28.564Z,16.40
2023-04-14T15:23:56.793Z,16.40
2023-04-14T15:26:26.395Z,16.50
2023-04-14T15:28:55.382Z,16.50
2023-04-14T15:31:23.485Z,16.30
2023-04-14T15:33:51.584Z,16.20
2023-04-14T15:36:19.618Z,16.10
2023-04-14T15:38:49.998Z,16.00
2023-04-14T15:41:18.090Z,15.90
2023-04-14T15:43:47.600Z,15.70
2023-04-14T15:46:15.958Z,15.70
2023-04-14T15:48:44.058Z,15.70
2023-04-14T15:51:12.136Z,15.60
2023-04-14T15:53:40.280Z,15.50
2023-04-14T15:56:08.408Z,15.50
2023-04-14T15:58:36.912Z,15.50
2023-04-14T16:01:09.297Z,15.40
2023-04-14T16:03:38.175Z,15.40
2023-04-14T16:06:08.376Z,15.40
2023-04-14T16:08:36.461Z,15.30
2023-04-14T16:11:04.971Z,15.20
2023-04-14T16:13:33.154Z,15.30
2023-04-14T16:16:01.289Z,15.30
2023-04-14T16:18:30.777Z,15.20
2023-04-14T16:20:58.808Z,15.30
2023-04-14T16:23:28.877Z,15.30
2023-04-14T16:25:57.586Z,15.20
2023-04-14T16:28:28.283Z,15.20
2023-04-14T16:30:59.570Z,15.10
2023-04-14T16:33:27.796Z,15.00
2023-04-14T16:35:58.554Z,14.90
2023-04-14T16:38:27.080Z,14.90
2023-04-14T16:40:57.387Z,15.00
2023-04-14T16:43:28.299Z,15.00
2023-04-14T16:46:02.355Z,14.90
2023-04-14T16:48:30.753Z,14.90
2023-04-14T16:51:04.482Z,14.80
2023-04-14T16:53:32.879Z,14.70
2023-04-14T16:56:04.834Z,14.50
2023-04-14T16:58:32.901Z,14.40
2023-04-14T17:01:01.242Z,14.30
2023-04-14T17:03:29.642Z,14.10
2023-04-14T17:05:59.247Z,14.10
2023-04-14T17:08:27.310Z,14.10
2023-04-14T17:10:55.466Z,14.00
2023-04-14T17:13:23.499Z,14.10
2023-04-14T17:15:58.831Z,13.90
2023-04-14T17:18:34.023Z,13.80
2023-04-14T17:21:03.444Z,13.60
2023-04-14T17:23:31.818Z,13.50
2023-04-14T17:26:00.776Z,13.40
2023-04-14T17:28:28.802Z,13.30
2023-04-14T17:30:57.481Z,13.40
2023-04-14T17:33:27.336Z,13.30
2023-04-14T17:35:55.778Z,13.20
2023-04-14T17:38:25.181Z,13.10
2023-04-14T17:40:54.610Z,13.10
2023-04-14T18:00:04.360Z,12.90
2023-04-14T18:02:34.658Z,12.80
2023-04-14T18:05:03.513Z,12.80
